Main page
METAR-TAF:

METAR-TAF

Airports :

Nanaimo Airport

Nanaimo, British Columbia, Canada

latitude: 49-03N, longitude: 123-52W, elevation: 92 ft

Current weather observation

The report was made 58 minutes ago, at 04:00 UTC
Calm wind
Temperature 73°F
Humidity 38%
Pressure 29.95 in. Hg
Visibility: 30 miles
Few clouds at a height of 25000 ft

METAR: CYCD 210400Z 00000KT 30SM FEW250 23/08 A2995 RMK CI1 LAST STFD OBS/NEXT 211300Z SLP144 DENSITY ALT 1000FT

Time: 21:58 (04:58 UTC)

Forecast

The report was made 5 hours and 18 minutes ago, at 23:40 UTC
Forecast valid from 21 at 00 UTC to 21 at 04 UTC
Wind 7 mph from the North/Northeast
Visibility: 6 miles
Few clouds at a height of 6000 ft

TAF: CYCD 202340Z 2100/2104 02006KT P6SM FEW060 RMK NXT FCST BY 211500Z

Weather observations and forecasts of more than 4000 airports (METAR and TAF reports).

The available stations are represented by yellow and red dots on the map.

Hover mouse over dot to see the name of the station.

Then click to see weather observations and forecasts.

To change the map : click on the green buttons with a black cross to zoom in, on the green button with a dash to zoom out, or on the green arrows for adjacent maps.


METAR-TAF: